Catàleg de serveis del Meteocat
Campanya meteocatpedra

Dades de l'estació automàtica Albesa

?
?
Resum diari 21:30 TU
Dades diàries de l'estació meteorològica
Temperatura mitjana 8.1 °C
Temperatura màxima 13.7 °C 14:45 TU
Temperatura mínima 3.2 °C 2:01 TU
Humitat relativa mitjana 81%
Precipitació acumulada 0.1 mm
Ratxa màxima del vent (2 m) 20.2 km/h - 304º 19:29 TU
Irradiació solar global 8.4 MJ/m2

El tram horari està expressat en Temps Universal (TU). Cal sumar una hora en horari d'hivern i dues en horari d'estiu per passar a l'hora oficial.

Albesa

Metadades estació meteorol´gica
Municipi Albesa
Comarca Noguera
Altitud 267 m
Data alta 21.06.1999
Estat actual Operativa
Dades de període
Període
TU
TM
°C
TX
°C
TN
°C
HRM
%
PPT
mm
VVM (2 m)
km/h
DVM (2 m)
graus
VVX (2 m)
km/h
RS
W/m2
00:00 - 00:30 5.6 5.8 5.1 89 0.0 0.7 68 3.2 0
00:30 - 01:00 5.1 5.3 5.0 95 0.0 0.7 177 3.2 0
01:00 - 01:30 5.4 5.8 5.2 93 0.0 1.8 194 3.2 0
01:30 - 02:00 4.2 5.9 3.3 93 0.0 1.8 345 4.0 0
02:00 - 02:30 3.6 3.9 3.2 99 0.0 1.4 342 3.6 0
02:30 - 03:00 4.1 4.2 4.0 94 0.0 1.4 48 5.0 0
03:00 - 03:30 4.1 4.4 3.8 96 0.0 2.2 63 4.0 0
03:30 - 04:00 4.5 5.1 4.3 97 0.0 1.8 117 7.9 0
04:00 - 04:30 5.0 5.1 5.0 96 0.0 2.5 104 6.8 0
04:30 - 05:00 4.9 5.1 4.8 96 0.0 2.9 75 6.1 0
05:00 - 05:30 5.0 5.2 4.8 97 0.0 2.2 63 6.5 0
05:30 - 06:00 5.2 5.3 5.1 96 0.0 2.2 22 4.7 0
06:00 - 06:30 5.4 5.6 5.1 95 0.0 2.2 344 4.3 0
06:30 - 07:00 5.9 6.1 5.6 91 0.0 1.8 356 4.7 1
07:00 - 07:30 6.1 6.2 6.1 91 0.0 2.2 54 5.0 9
07:30 - 08:00 6.4 6.8 6.2 92 0.1 2.5 123 7.6 46
08:00 - 08:30 6.9 7.1 6.5 92 0.0 1.4 222 5.8 45
08:30 - 09:00 6.7 6.8 6.5 98 0.0 2.5 236 6.1 54
09:00 - 09:30 6.9 7.1 6.8 95 0.0 2.2 254 5.4 52
09:30 - 10:00 7.4 7.9 7.1 93 0.0 2.5 191 9.4 108
10:00 - 10:30 8.4 9.0 8.0 87 0.0 2.9 233 7.9 229
10:30 - 11:00 9.3 10.3 8.8 81 0.0 4.0 228 9.7 344
11:00 - 11:30 10.9 11.6 10.3 70 0.0 3.6 213 9.7 495
11:30 - 12:00 11.7 12.5 11.1 70 0.0 3.6 208 11.2 495
12:00 - 12:30 12.9 13.6 12.3 67 0.0 4.0 212 11.9 580
12:30 - 13:00 13.1 13.6 12.2 66 0.0 3.2 237 11.2 408
13:00 - 13:30 12.6 13.3 11.9 68 0.0 4.0 251 11.2 405
13:30 - 14:00 13.1 13.4 12.7 66 0.0 5.8 226 13.7 415
14:00 - 14:30 13.4 13.6 13.1 65 0.0 4.3 224 11.5 346
14:30 - 15:00 13.4 13.7 13.2 65 0.0 4.7 251 14.4 276
15:00 - 15:30 13.4 13.6 13.2 68 0.0 3.2 251 9.4 189
15:30 - 16:00 12.6 13.1 11.9 74 0.0 4.3 195 9.7 108
16:00 - 16:30 11.2 11.8 10.7 82 0.0 2.9 172 7.6 33
16:30 - 17:00 10.6 11.1 10.2 78 0.0 3.6 230 9.4 3
17:00 - 17:30 10.5 10.7 10.1 61 0.0 4.7 281 13.3 0
17:30 - 18:00 9.8 10.5 9.2 64 0.0 3.2 284 13.7 0
18:00 - 18:30 8.6 9.2 8.3 69 0.0 3.2 210 8.6 0
18:30 - 19:00 8.5 9.3 8.1 68 0.0 5.8 252 16.9 0
19:00 - 19:30 9.0 9.3 8.8 64 0.0 8.3 284 20.2 0
19:30 - 20:00 8.8 9.1 8.4 62 0.0 6.1 299 15.8 0
20:00 - 20:30 8.1 8.3 7.6 64 0.0 2.9 280 6.8 0
20:30 - 21:00 7.4 7.8 6.2 68 0.0 2.9 209 7.2 0
21:00 - 21:30 6.3 6.4 6.1 75 0.0 2.9 158 6.8 0
21:30 - 22:00 5.4 6.3 4.8 80 0.0 1.4 336 4.7 0

Les dades en taronja només han passat un control de qualitat automàtic. Resta pendent la seva validació definitiva.